Terminal Aerodrome Forecast
Issued by NWS Grand Forks, ND

Home | Current Version | Previous Version | Text Only | Print | Product List | Glossary Off
Versions: 1 2 3 4 5 6 7 8 9 10 11

000
FTUS43 KFGF 241500 AAB
TAFGFK
TAF AMD
KGFK 241533Z 2416/2512 34015G24KT P6SM BKN025
     FM241700 34012G18KT P6SM SCT025
     FM242000 34015KT P6SM FEW250
     FM250100 36006KT P6SM FEW250=

USA.gov is the U.S. government's official web portal to all federal, state and local government web resources and services.